sensor_id;sensor_type;location;lat;lon;timestamp;pressure;altitude;pressure_sealevel;temperature;humidity
80693;BME280;70055;39.436;-77.514;2024-02-23T00:00:46;98498.35;;;5.74;57.12
80693;BME280;70055;39.436;-77.514;2024-02-23T00:03:14;98490.42;;;4.88;58.75
80693;BME280;70055;39.436;-77.514;2024-02-23T00:05:45;98481.49;;;4.73;59.99
80693;BME280;70055;39.436;-77.514;2024-02-23T00:08:13;98478.51;;;4.88;60.72
80693;BME280;70055;39.436;-77.514;2024-02-23T00:10:40;98472.67;;;4.61;60.76
80693;BME280;70055;39.436;-77.514;2024-02-23T00:13:12;98464.98;;;6.05;57.89
80693;BME280;70055;39.436;-77.514;2024-02-23T00:15:39;98454.50;;;5.90;57.31
80693;BME280;70055;39.436;-77.514;2024-02-23T00:18:07;98444.64;;;6.13;57.48
80693;BME280;70055;39.436;-77.514;2024-02-23T00:20:36;98427.54;;;4.73;59.03
80693;BME280;70055;39.436;-77.514;2024-02-23T00:23:03;98437.10;;;6.48;55.40
80693;BME280;70055;39.436;-77.514;2024-02-23T00:25:33;98438.81;;;5.79;57.51
80693;BME280;70055;39.436;-77.514;2024-02-23T00:28:06;98450.31;;;6.72;55.52
80693;BME280;70055;39.436;-77.514;2024-02-23T00:30:36;98453.30;;;6.68;55.27
80693;BME280;70055;39.436;-77.514;2024-02-23T00:33:06;98449.88;;;6.74;55.09
80693;BME280;70055;39.436;-77.514;2024-02-23T00:35:35;98448.30;;;6.59;55.28
80693;BME280;70055;39.436;-77.514;2024-02-23T00:38:03;98445.09;;;6.67;55.42
80693;BME280;70055;39.436;-77.514;2024-02-23T00:40:31;98441.46;;;6.41;55.51
80693;BME280;70055;39.436;-77.514;2024-02-23T00:43:00;98442.84;;;5.77;57.01
80693;BME280;70055;39.436;-77.514;2024-02-23T00:45:28;98438.25;;;4.97;58.81
80693;BME280;70055;39.436;-77.514;2024-02-23T00:47:56;98438.92;;;6.68;55.30
80693;BME280;70055;39.436;-77.514;2024-02-23T00:50:30;98436.94;;;6.88;55.59
80693;BME280;70055;39.436;-77.514;2024-02-23T00:53:00;98429.36;;;7.10;54.63
80693;BME280;70055;39.436;-77.514;2024-02-23T00:55:28;98433.70;;;5.59;56.86
80693;BME280;70055;39.436;-77.514;2024-02-23T00:57:58;98442.52;;;5.97;56.95
80693;BME280;70055;39.436;-77.514;2024-02-23T01:00:26;98443.31;;;5.68;57.15
80693;BME280;70055;39.436;-77.514;2024-02-23T01:02:55;98442.12;;;7.05;55.04
80693;BME280;70055;39.436;-77.514;2024-02-23T01:05:24;98441.93;;;6.57;55.06
80693;BME280;70055;39.436;-77.514;2024-02-23T01:07:54;98438.92;;;7.37;53.47
80693;BME280;70055;39.436;-77.514;2024-02-23T01:10:23;98425.30;;;7.50;52.90
80693;BME280;70055;39.436;-77.514;2024-02-23T01:12:51;98420.41;;;6.29;54.84
80693;BME280;70055;39.436;-77.514;2024-02-23T01:15:18;98416.22;;;6.46;54.67
80693;BME280;70055;39.436;-77.514;2024-02-23T01:17:47;98404.35;;;6.18;55.34
80693;BME280;70055;39.436;-77.514;2024-02-23T01:20:15;98396.31;;;5.70;56.10
80693;BME280;70055;39.436;-77.514;2024-02-23T01:22:43;98390.94;;;6.26;55.25
80693;BME280;70055;39.436;-77.514;2024-02-23T01:25:11;98381.54;;;6.61;54.66
80693;BME280;70055;39.436;-77.514;2024-02-23T01:27:40;98357.70;;;7.18;53.56
80693;BME280;70055;39.436;-77.514;2024-02-23T01:30:11;98341.00;;;5.09;56.57
80693;BME280;70055;39.436;-77.514;2024-02-23T01:32:39;98326.93;;;4.24;60.08
80693;BME280;70055;39.436;-77.514;2024-02-23T01:35:09;98334.49;;;6.43;55.12
80693;BME280;70055;39.436;-77.514;2024-02-23T01:37:39;98342.43;;;5.99;55.98
80693;BME280;70055;39.436;-77.514;2024-02-23T01:40:08;98344.08;;;6.96;53.97
80693;BME280;70055;39.436;-77.514;2024-02-23T01:42:36;98353.18;;;7.24;53.78
80693;BME280;70055;39.436;-77.514;2024-02-23T01:45:06;98358.46;;;6.61;55.46
80693;BME280;70055;39.436;-77.514;2024-02-23T01:47:34;98351.44;;;6.19;56.12
80693;BME280;70055;39.436;-77.514;2024-02-23T01:50:03;98339.66;;;6.18;55.82
80693;BME280;70055;39.436;-77.514;2024-02-23T01:52:31;98332.07;;;6.41;55.67
80693;BME280;70055;39.436;-77.514;2024-02-23T01:54:59;98321.94;;;5.42;57.43
80693;BME280;70055;39.436;-77.514;2024-02-23T01:57:28;98312.18;;;5.48;57.19
80693;BME280;70055;39.436;-77.514;2024-02-23T01:59:57;98303.02;;;5.94;56.43
80693;BME280;70055;39.436;-77.514;2024-02-23T02:02:28;98288.34;;;6.52;55.15
80693;BME280;70055;39.436;-77.514;2024-02-23T02:04:55;98279.06;;;6.37;54.97
80693;BME280;70055;39.436;-77.514;2024-02-23T02:07:24;98269.86;;;5.76;56.37
80693;BME280;70055;39.436;-77.514;2024-02-23T02:09:52;98262.50;;;6.75;54.34
80693;BME280;70055;39.436;-77.514;2024-02-23T02:12:28;98272.63;;;5.85;56.80
80693;BME280;70055;39.436;-77.514;2024-02-23T02:14:56;98281.68;;;7.02;54.52
80693;BME280;70055;39.436;-77.514;2024-02-23T02:17:24;98278.78;;;6.76;54.76
80693;BME280;70055;39.436;-77.514;2024-02-23T02:19:57;98277.21;;;7.10;55.07
80693;BME280;70055;39.436;-77.514;2024-02-23T02:22:26;98283.63;;;5.49;57.25
80693;BME280;70055;39.436;-77.514;2024-02-23T02:24:55;98275.13;;;6.18;56.17
80693;BME280;70055;39.436;-77.514;2024-02-23T02:27:25;98272.19;;;6.08;56.32
80693;BME280;70055;39.436;-77.514;2024-02-23T02:29:52;98262.66;;;6.03;57.46
80693;BME280;70055;39.436;-77.514;2024-02-23T02:32:21;98261.05;;;5.97;57.05
80693;BME280;70055;39.436;-77.514;2024-02-23T02:34:49;98252.58;;;6.38;56.53
80693;BME280;70055;39.436;-77.514;2024-02-23T02:37:16;98244.55;;;5.81;57.30
80693;BME280;70055;39.436;-77.514;2024-02-23T02:39:44;98240.94;;;6.89;55.70
80693;BME280;70055;39.436;-77.514;2024-02-23T02:42:13;98234.45;;;6.94;55.06
80693;BME280;70055;39.436;-77.514;2024-02-23T02:44:43;98225.41;;;7.57;53.61
80693;BME280;70055;39.436;-77.514;2024-02-23T02:47:12;98223.71;;;6.89;54.18
80693;BME280;70055;39.436;-77.514;2024-02-23T02:49:41;98237.44;;;5.54;56.33
80693;BME280;70055;39.436;-77.514;2024-02-23T02:52:09;98236.50;;;6.72;54.66
80693;BME280;70055;39.436;-77.514;2024-02-23T02:54:38;98233.31;;;7.80;52.31
80693;BME280;70055;39.436;-77.514;2024-02-23T02:57:07;98241.22;;;6.84;54.11
80693;BME280;70055;39.436;-77.514;2024-02-23T02:59:37;98244.43;;;6.21;55.66
80693;BME280;70055;39.436;-77.514;2024-02-23T03:02:08;98243.71;;;6.59;54.44
80693;BME280;70055;39.436;-77.514;2024-02-23T03:04:35;98240.37;;;6.91;54.07
80693;BME280;70055;39.436;-77.514;2024-02-23T03:07:05;98249.37;;;5.21;56.46
80693;BME280;70055;39.436;-77.514;2024-02-23T03:09:35;98245.42;;;5.61;57.21
80693;BME280;70055;39.436;-77.514;2024-02-23T03:12:03;98238.01;;;5.85;56.21
80693;BME280;70055;39.436;-77.514;2024-02-23T03:14:31;98230.22;;;6.11;54.77
80693;BME280;70055;39.436;-77.514;2024-02-23T03:16:59;98223.10;;;6.53;53.74
80693;BME280;70055;39.436;-77.514;2024-02-23T03:19:27;98215.25;;;6.46;54.12
80693;BME280;70055;39.436;-77.514;2024-02-23T03:21:56;98209.77;;;6.44;53.57
80693;BME280;70055;39.436;-77.514;2024-02-23T03:24:24;98210.50;;;4.59;58.59
80693;BME280;70055;39.436;-77.514;2024-02-23T03:26:54;98205.18;;;5.42;56.62
80693;BME280;70055;39.436;-77.514;2024-02-23T03:29:22;98201.55;;;5.52;55.43
80693;BME280;70055;39.436;-77.514;2024-02-23T03:31:50;98202.27;;;5.73;54.58
80693;BME280;70055;39.436;-77.514;2024-02-23T03:34:20;98189.42;;;6.22;54.21
80693;BME280;70055;39.436;-77.514;2024-02-23T03:36:48;98189.50;;;5.97;54.50
80693;BME280;70055;39.436;-77.514;2024-02-23T03:39:16;98181.49;;;5.80;54.09
80693;BME280;70055;39.436;-77.514;2024-02-23T03:41:44;98184.95;;;4.85;56.29
80693;BME280;70055;39.436;-77.514;2024-02-23T03:44:13;98176.59;;;4.49;56.99
80693;BME280;70055;39.436;-77.514;2024-02-23T03:46:41;98172.30;;;5.49;54.99
80693;BME280;70055;39.436;-77.514;2024-02-23T03:49:10;98164.98;;;6.18;53.35
80693;BME280;70055;39.436;-77.514;2024-02-23T03:51:38;98161.32;;;4.69;54.52
80693;BME280;70055;39.436;-77.514;2024-02-23T03:54:08;98158.51;;;5.04;55.57
80693;BME280;70055;39.436;-77.514;2024-02-23T03:56:39;98153.03;;;4.65;57.74
80693;BME280;70055;39.436;-77.514;2024-02-23T03:59:09;98155.77;;;5.82;54.72
80693;BME280;70055;39.436;-77.514;2024-02-23T04:01:37;98150.99;;;5.25;55.54
80693;BME280;70055;39.436;-77.514;2024-02-23T04:04:06;98139.04;;;4.37;58.07
80693;BME280;70055;39.436;-77.514;2024-02-23T04:06:34;98124.91;;;5.92;54.38
80693;BME280;70055;39.436;-77.514;2024-02-23T04:09:02;98125.21;;;5.62;54.65
80693;BME280;70055;39.436;-77.514;2024-02-23T04:11:30;98121.44;;;4.64;56.31
80693;BME280;70055;39.436;-77.514;2024-02-23T04:13:58;98111.67;;;5.32;55.35
80693;BME280;70055;39.436;-77.514;2024-02-23T04:16:26;98107.31;;;5.91;53.95
80693;BME280;70055;39.436;-77.514;2024-02-23T04:18:54;98107.43;;;5.52;54.78
80693;BME280;70055;39.436;-77.514;2024-02-23T04:21:23;98101.29;;;5.40;54.58
80693;BME280;70055;39.436;-77.514;2024-02-23T04:23:51;98097.21;;;4.65;55.90
80693;BME280;70055;39.436;-77.514;2024-02-23T04:26:21;98087.59;;;5.18;54.69
80693;BME280;70055;39.436;-77.514;2024-02-23T04:28:49;98075.72;;;5.02;54.77
80693;BME280;70055;39.436;-77.514;2024-02-23T04:31:16;98078.29;;;5.08;55.58
80693;BME280;70055;39.436;-77.514;2024-02-23T04:33:45;98082.02;;;4.83;56.90
80693;BME280;70055;39.436;-77.514;2024-02-23T04:36:12;98076.70;;;5.96;54.67
80693;BME280;70055;39.436;-77.514;2024-02-23T04:38:40;98074.72;;;5.48;54.43
80693;BME280;70055;39.436;-77.514;2024-02-23T04:41:08;98072.15;;;6.46;53.17
80693;BME280;70055;39.436;-77.514;2024-02-23T04:43:37;98071.89;;;6.00;54.27
80693;BME280;70055;39.436;-77.514;2024-02-23T04:46:05;98071.91;;;5.83;54.15
80693;BME280;70055;39.436;-77.514;2024-02-23T04:48:35;98073.08;;;3.50;58.06
80693;BME280;70055;39.436;-77.514;2024-02-23T04:51:04;98072.33;;;4.80;55.12
80693;BME280;70055;39.436;-77.514;2024-02-23T04:53:32;98072.92;;;4.38;55.44
80693;BME280;70055;39.436;-77.514;2024-02-23T04:56:03;98068.10;;;4.97;54.45
80693;BME280;70055;39.436;-77.514;2024-02-23T04:58:31;98069.40;;;4.41;55.68
80693;BME280;70055;39.436;-77.514;2024-02-23T05:01:00;98071.42;;;4.77;55.52
80693;BME280;70055;39.436;-77.514;2024-02-23T05:03:29;98061.71;;;5.28;54.85
80693;BME280;70055;39.436;-77.514;2024-02-23T05:05:57;98052.47;;;5.46;54.38
80693;BME280;70055;39.436;-77.514;2024-02-23T05:08:26;98052.10;;;4.76;56.35
80693;BME280;70055;39.436;-77.514;2024-02-23T05:10:54;98043.27;;;4.82;56.57
80693;BME280;70055;39.436;-77.514;2024-02-23T05:13:24;98030.81;;;5.57;54.98
80693;BME280;70055;39.436;-77.514;2024-02-23T05:15:54;98024.60;;;5.07;55.78
80693;BME280;70055;39.436;-77.514;2024-02-23T05:18:21;98017.58;;;5.24;54.55
80693;BME280;70055;39.436;-77.514;2024-02-23T05:20:50;98018.17;;;5.09;55.36
80693;BME280;70055;39.436;-77.514;2024-02-23T05:23:17;98014.40;;;4.97;55.70
80693;BME280;70055;39.436;-77.514;2024-02-23T05:25:45;98008.36;;;4.86;55.64
80693;BME280;70055;39.436;-77.514;2024-02-23T05:28:13;98005.60;;;5.30;54.80
80693;BME280;70055;39.436;-77.514;2024-02-23T05:30:41;98003.84;;;5.73;54.19
80693;BME280;70055;39.436;-77.514;2024-02-23T05:33:12;98002.90;;;5.21;54.94
80693;BME280;70055;39.436;-77.514;2024-02-23T05:35:40;98000.33;;;5.84;53.69
80693;BME280;70055;39.436;-77.514;2024-02-23T05:38:09;97996.45;;;5.80;53.56
80693;BME280;70055;39.436;-77.514;2024-02-23T05:40:37;97994.18;;;5.40;53.43
80693;BME280;70055;39.436;-77.514;2024-02-23T05:43:04;98003.96;;;5.19;53.22
80693;BME280;70055;39.436;-77.514;2024-02-23T05:45:33;98004.41;;;5.34;52.78
80693;BME280;70055;39.436;-77.514;2024-02-23T05:48:04;98005.51;;;4.18;54.08
80693;BME280;70055;39.436;-77.514;2024-02-23T05:50:32;98000.72;;;4.52;53.71
80693;BME280;70055;39.436;-77.514;2024-02-23T05:53:01;98006.77;;;4.39;55.21
80693;BME280;70055;39.436;-77.514;2024-02-23T05:55:29;97993.40;;;4.92;54.30
80693;BME280;70055;39.436;-77.514;2024-02-23T05:57:58;98011.51;;;4.72;54.90
80693;BME280;70055;39.436;-77.514;2024-02-23T06:00:26;98009.22;;;5.41;54.34
80693;BME280;70055;39.436;-77.514;2024-02-23T06:02:55;98005.35;;;5.39;54.13
80693;BME280;70055;39.436;-77.514;2024-02-23T06:05:23;98008.05;;;5.00;54.79
80693;BME280;70055;39.436;-77.514;2024-02-23T06:07:50;98008.06;;;5.13;54.60
80693;BME280;70055;39.436;-77.514;2024-02-23T06:10:18;98008.65;;;4.86;54.51
80693;BME280;70055;39.436;-77.514;2024-02-23T06:12:46;98004.94;;;5.38;54.50
80693;BME280;70055;39.436;-77.514;2024-02-23T06:15:14;98008.13;;;4.32;56.27
80693;BME280;70055;39.436;-77.514;2024-02-23T06:17:42;97986.78;;;4.51;56.03
80693;BME280;70055;39.436;-77.514;2024-02-23T06:20:11;97984.57;;;4.68;56.56
80693;BME280;70055;39.436;-77.514;2024-02-23T06:22:40;97968.37;;;5.49;55.38
80693;BME280;70055;39.436;-77.514;2024-02-23T06:25:10;97956.17;;;5.46;55.35
80693;BME280;70055;39.436;-77.514;2024-02-23T06:27:39;97955.52;;;5.86;54.47
80693;BME280;70055;39.436;-77.514;2024-02-23T06:30:08;97963.31;;;5.40;55.37
80693;BME280;70055;39.436;-77.514;2024-02-23T06:32:37;97965.60;;;5.60;55.61
80693;BME280;70055;39.436;-77.514;2024-02-23T06:35:07;97960.25;;;6.06;54.31
80693;BME280;70055;39.436;-77.514;2024-02-23T06:37:37;97953.40;;;5.99;54.63
80693;BME280;70055;39.436;-77.514;2024-02-23T06:40:06;97951.59;;;4.92;56.14
80693;BME280;70055;39.436;-77.514;2024-02-23T06:42:34;97943.78;;;5.46;54.59
80693;BME280;70055;39.436;-77.514;2024-02-23T06:45:03;97942.02;;;4.90;56.04
80693;BME280;70055;39.436;-77.514;2024-02-23T06:47:32;97932.30;;;5.48;54.56
80693;BME280;70055;39.436;-77.514;2024-02-23T06:50:00;97925.47;;;5.69;54.36
80693;BME280;70055;39.436;-77.514;2024-02-23T06:52:28;97925.54;;;6.46;52.80
80693;BME280;70055;39.436;-77.514;2024-02-23T06:54:56;97926.54;;;6.22;53.74
80693;BME280;70055;39.436;-77.514;2024-02-23T06:57:23;97927.74;;;6.33;53.84
80693;BME280;70055;39.436;-77.514;2024-02-23T06:59:51;97928.27;;;6.27;54.21
80693;BME280;70055;39.436;-77.514;2024-02-23T07:02:20;97932.00;;;6.26;53.63
80693;BME280;70055;39.436;-77.514;2024-02-23T07:04:50;97930.53;;;5.80;53.53
80693;BME280;70055;39.436;-77.514;2024-02-23T07:07:22;97923.15;;;6.00;53.96
80693;BME280;70055;39.436;-77.514;2024-02-23T07:09:53;97925.78;;;6.06;54.15
80693;BME280;70055;39.436;-77.514;2024-02-23T07:12:22;97932.54;;;6.07;53.91
80693;BME280;70055;39.436;-77.514;2024-02-23T07:14:49;97922.42;;;6.05;53.82
80693;BME280;70055;39.436;-77.514;2024-02-23T07:17:17;97920.22;;;6.28;53.83
80693;BME280;70055;39.436;-77.514;2024-02-23T07:19:45;97913.25;;;6.28;53.32
80693;BME280;70055;39.436;-77.514;2024-02-23T07:22:16;97904.01;;;5.62;54.16
80693;BME280;70055;39.436;-77.514;2024-02-23T07:24:44;97908.62;;;5.20;56.16
80693;BME280;70055;39.436;-77.514;2024-02-23T07:27:12;97907.68;;;5.88;54.83
80693;BME280;70055;39.436;-77.514;2024-02-23T07:29:40;97896.48;;;6.10;54.29
80693;BME280;70055;39.436;-77.514;2024-02-23T07:32:08;97887.28;;;6.06;53.90
80693;BME280;70055;39.436;-77.514;2024-02-23T07:34:38;97878.03;;;5.14;55.21
80693;BME280;70055;39.436;-77.514;2024-02-23T07:37:06;97877.84;;;4.99;56.00
80693;BME280;70055;39.436;-77.514;2024-02-23T07:39:34;97879.80;;;6.28;53.86
80693;BME280;70055;39.436;-77.514;2024-02-23T07:42:05;97875.22;;;6.18;53.79
80693;BME280;70055;39.436;-77.514;2024-02-23T07:44:33;97876.59;;;6.74;52.06
80693;BME280;70055;39.436;-77.514;2024-02-23T07:47:01;97868.25;;;6.74;52.87
80693;BME280;70055;39.436;-77.514;2024-02-23T07:49:29;97867.30;;;6.26;53.32
80693;BME280;70055;39.436;-77.514;2024-02-23T07:51:57;97870.49;;;5.85;54.57
80693;BME280;70055;39.436;-77.514;2024-02-23T07:54:25;97857.79;;;5.53;55.33
80693;BME280;70055;39.436;-77.514;2024-02-23T07:56:53;97863.23;;;5.85;54.87
80693;BME280;70055;39.436;-77.514;2024-02-23T07:59:21;97861.24;;;6.45;53.86
80693;BME280;70055;39.436;-77.514;2024-02-23T08:01:50;97867.12;;;6.23;53.36
80693;BME280;70055;39.436;-77.514;2024-02-23T08:04:18;97871.41;;;6.62;53.96
80693;BME280;70055;39.436;-77.514;2024-02-23T08:06:46;97872.35;;;6.39;53.93
80693;BME280;70055;39.436;-77.514;2024-02-23T08:09:17;97867.54;;;6.50;54.04
80693;BME280;70055;39.436;-77.514;2024-02-23T08:11:47;97851.16;;;6.38;53.16
80693;BME280;70055;39.436;-77.514;2024-02-23T08:14:16;97836.84;;;6.74;52.56
80693;BME280;70055;39.436;-77.514;2024-02-23T08:16:44;97843.21;;;6.11;54.26
80693;BME280;70055;39.436;-77.514;2024-02-23T08:19:12;97838.01;;;5.57;54.73
80693;BME280;70055;39.436;-77.514;2024-02-23T08:21:40;97841.79;;;4.90;57.08
80693;BME280;70055;39.436;-77.514;2024-02-23T08:24:08;97838.39;;;5.78;55.42
80693;BME280;70055;39.436;-77.514;2024-02-23T08:26:36;97838.42;;;5.84;55.36
80693;BME280;70055;39.436;-77.514;2024-02-23T08:29:05;97846.75;;;6.16;54.90
80693;BME280;70055;39.436;-77.514;2024-02-23T08:31:33;97843.82;;;6.65;53.83
80693;BME280;70055;39.436;-77.514;2024-02-23T08:34:01;97846.53;;;6.19;54.40
80693;BME280;70055;39.436;-77.514;2024-02-23T08:36:29;97848.78;;;5.85;54.23
80693;BME280;70055;39.436;-77.514;2024-02-23T08:38:57;97843.89;;;4.63;57.12
80693;BME280;70055;39.436;-77.514;2024-02-23T08:41:25;97846.55;;;5.41;55.72
80693;BME280;70055;39.436;-77.514;2024-02-23T08:43:57;97854.15;;;5.95;55.22
80693;BME280;70055;39.436;-77.514;2024-02-23T08:46:25;97853.98;;;5.39;55.75
80693;BME280;70055;39.436;-77.514;2024-02-23T08:48:54;97867.05;;;6.91;53.50
80693;BME280;70055;39.436;-77.514;2024-02-23T08:51:23;97872.09;;;6.13;54.71
80693;BME280;70055;39.436;-77.514;2024-02-23T08:53:51;97855.49;;;6.52;53.67
80693;BME280;70055;39.436;-77.514;2024-02-23T08:56:18;97856.86;;;6.27;54.61
80693;BME280;70055;39.436;-77.514;2024-02-23T08:58:46;97852.91;;;5.46;56.17
80693;BME280;70055;39.436;-77.514;2024-02-23T09:01:14;97860.65;;;6.28;55.36
80693;BME280;70055;39.436;-77.514;2024-02-23T09:03:44;97858.47;;;5.08;57.01
80693;BME280;70055;39.436;-77.514;2024-02-23T09:06:11;97858.22;;;5.42;57.32
80693;BME280;70055;39.436;-77.514;2024-02-23T09:08:40;97851.37;;;5.43;57.71
80693;BME280;70055;39.436;-77.514;2024-02-23T09:11:08;97837.56;;;5.10;58.33
80693;BME280;70055;39.436;-77.514;2024-02-23T09:13:36;97845.10;;;5.92;56.76
80693;BME280;70055;39.436;-77.514;2024-02-23T09:16:06;97838.08;;;5.97;55.87
80693;BME280;70055;39.436;-77.514;2024-02-23T09:18:33;97832.06;;;5.77;56.15
80693;BME280;70055;39.436;-77.514;2024-02-23T09:21:02;97826.52;;;5.80;55.87
80693;BME280;70055;39.436;-77.514;2024-02-23T09:23:30;97812.27;;;5.10;56.92
80693;BME280;70055;39.436;-77.514;2024-02-23T09:25:57;97818.59;;;5.37;57.38
80693;BME280;70055;39.436;-77.514;2024-02-23T09:28:29;97809.71;;;5.71;55.70
80693;BME280;70055;39.436;-77.514;2024-02-23T09:30:58;97795.58;;;5.77;56.76
80693;BME280;70055;39.436;-77.514;2024-02-23T09:33:25;97798.88;;;5.13;57.90
80693;BME280;70055;39.436;-77.514;2024-02-23T09:35:53;97799.08;;;5.37;57.54
80693;BME280;70055;39.436;-77.514;2024-02-23T09:38:21;97805.14;;;6.08;55.98
80693;BME280;70055;39.436;-77.514;2024-02-23T09:40:49;97799.11;;;6.22;55.12
80693;BME280;70055;39.436;-77.514;2024-02-23T09:43:17;97793.15;;;7.16;53.50
80693;BME280;70055;39.436;-77.514;2024-02-23T09:45:46;97807.71;;;6.89;54.15
80693;BME280;70055;39.436;-77.514;2024-02-23T09:48:15;97816.63;;;7.61;52.02
80693;BME280;70055;39.436;-77.514;2024-02-23T09:50:46;97816.85;;;7.80;51.57
80693;BME280;70055;39.436;-77.514;2024-02-23T09:53:21;97819.24;;;7.15;53.03
80693;BME280;70055;39.436;-77.514;2024-02-23T09:55:50;97816.72;;;7.63;51.64
80693;BME280;70055;39.436;-77.514;2024-02-23T09:58:19;97815.73;;;7.19;52.68
80693;BME280;70055;39.436;-77.514;2024-02-23T10:00:48;97810.28;;;7.24;52.32
80693;BME280;70055;39.436;-77.514;2024-02-23T10:03:16;97816.83;;;7.33;50.77
80693;BME280;70055;39.436;-77.514;2024-02-23T10:05:44;97825.13;;;7.05;52.28
80693;BME280;70055;39.436;-77.514;2024-02-23T10:08:11;97821.81;;;6.70;52.81
80693;BME280;70055;39.436;-77.514;2024-02-23T10:10:39;97827.31;;;5.68;53.96
80693;BME280;70055;39.436;-77.514;2024-02-23T10:13:07;97826.24;;;5.86;54.04
80693;BME280;70055;39.436;-77.514;2024-02-23T10:15:37;97828.08;;;5.03;56.59
80693;BME280;70055;39.436;-77.514;2024-02-23T10:18:05;97831.06;;;5.47;56.51
80693;BME280;70055;39.436;-77.514;2024-02-23T10:20:34;97842.11;;;6.27;53.42
80693;BME280;70055;39.436;-77.514;2024-02-23T10:23:01;97853.97;;;6.26;54.79
80693;BME280;70055;39.436;-77.514;2024-02-23T10:25:29;97849.47;;;4.44;59.28
80693;BME280;70055;39.436;-77.514;2024-02-23T10:27:57;97852.14;;;3.34;63.88
80693;BME280;70055;39.436;-77.514;2024-02-23T10:30:27;97858.54;;;1.82;70.01
80693;BME280;70055;39.436;-77.514;2024-02-23T10:32:56;97859.79;;;2.47;69.38
80693;BME280;70055;39.436;-77.514;2024-02-23T10:35:26;97866.30;;;2.75;68.26
80693;BME280;70055;39.436;-77.514;2024-02-23T10:37:55;97869.18;;;2.01;67.87
80693;BME280;70055;39.436;-77.514;2024-02-23T10:40:24;97874.23;;;3.21;65.67
80693;BME280;70055;39.436;-77.514;2024-02-23T10:42:55;97872.41;;;2.78;68.18
80693;BME280;70055;39.436;-77.514;2024-02-23T10:45:24;97876.64;;;3.33;66.67
80693;BME280;70055;39.436;-77.514;2024-02-23T10:47:53;97875.36;;;2.00;70.78
80693;BME280;70055;39.436;-77.514;2024-02-23T10:50:24;97866.51;;;3.12;67.81
80693;BME280;70055;39.436;-77.514;2024-02-23T10:52:53;97856.13;;;3.44;66.80
80693;BME280;70055;39.436;-77.514;2024-02-23T10:55:23;97849.70;;;1.16;73.69
80693;BME280;70055;39.436;-77.514;2024-02-23T10:57:53;97841.84;;;0.95;75.48
80693;BME280;70055;39.436;-77.514;2024-02-23T11:00:25;97843.89;;;1.77;72.20
80693;BME280;70055;39.436;-77.514;2024-02-23T11:02:56;97837.40;;;2.12;70.53
80693;BME280;70055;39.436;-77.514;2024-02-23T11:05:24;97838.71;;;2.28;70.48
80693;BME280;70055;39.436;-77.514;2024-02-23T11:07:56;97843.50;;;3.55;65.32
80693;BME280;70055;39.436;-77.514;2024-02-23T11:10:24;97847.88;;;3.03;65.55
80693;BME280;70055;39.436;-77.514;2024-02-23T11:12:58;97853.75;;;2.24;69.57
80693;BME280;70055;39.436;-77.514;2024-02-23T11:15:27;97850.32;;;3.61;64.51
80693;BME280;70055;39.436;-77.514;2024-02-23T11:17:55;97835.47;;;4.35;61.02
80693;BME280;70055;39.436;-77.514;2024-02-23T11:20:23;97855.99;;;2.77;64.18
80693;BME280;70055;39.436;-77.514;2024-02-23T11:22:52;97844.60;;;2.97;63.70
80693;BME280;70055;39.436;-77.514;2024-02-23T11:25:27;97847.57;;;2.72;64.15
80693;BME280;70055;39.436;-77.514;2024-02-23T11:27:54;97852.57;;;2.26;66.32
80693;BME280;70055;39.436;-77.514;2024-02-23T11:30:22;97862.50;;;3.47;64.12
80693;BME280;70055;39.436;-77.514;2024-02-23T11:32:50;97853.22;;;5.20;59.20
80693;BME280;70055;39.436;-77.514;2024-02-23T11:35:26;97852.83;;;5.49;57.38
80693;BME280;70055;39.436;-77.514;2024-02-23T11:37:57;97859.84;;;5.65;57.22
80693;BME280;70055;39.436;-77.514;2024-02-23T11:40:25;97859.40;;;5.63;56.25
80693;BME280;70055;39.436;-77.514;2024-02-23T11:42:55;97865.66;;;6.72;55.20
80693;BME280;70055;39.436;-77.514;2024-02-23T11:45:24;97869.67;;;6.84;54.05
80693;BME280;70055;39.436;-77.514;2024-02-23T11:47:52;97872.41;;;6.25;54.86
80693;BME280;70055;39.436;-77.514;2024-02-23T11:50:20;97875.27;;;6.40;55.46
80693;BME280;70055;39.436;-77.514;2024-02-23T11:52:48;97873.81;;;6.04;55.97
80693;BME280;70055;39.436;-77.514;2024-02-23T11:55:19;97877.10;;;5.16;56.23
80693;BME280;70055;39.436;-77.514;2024-02-23T11:57:48;97877.45;;;4.97;56.26
80693;BME280;70055;39.436;-77.514;2024-02-23T12:00:17;97884.65;;;4.28;58.53
80693;BME280;70055;39.436;-77.514;2024-02-23T12:02:49;97880.82;;;5.04;57.66
80693;BME280;70055;39.436;-77.514;2024-02-23T12:05:17;97878.47;;;4.81;57.19
80693;BME280;70055;39.436;-77.514;2024-02-23T12:07:47;97874.19;;;4.70;57.90
80693;BME280;70055;39.436;-77.514;2024-02-23T12:10:16;97872.76;;;5.09;57.07
80693;BME280;70055;39.436;-77.514;2024-02-23T12:12:44;97874.17;;;5.78;55.84
80693;BME280;70055;39.436;-77.514;2024-02-23T12:15:16;97870.42;;;5.85;55.71
80693;BME280;70055;39.436;-77.514;2024-02-23T12:17:48;97870.43;;;6.48;54.08
80693;BME280;70055;39.436;-77.514;2024-02-23T12:20:18;97875.04;;;6.34;53.89
80693;BME280;70055;39.436;-77.514;2024-02-23T12:22:47;97887.38;;;6.37;54.71
80693;BME280;70055;39.436;-77.514;2024-02-23T12:25:16;97890.76;;;5.90;55.12
80693;BME280;70055;39.436;-77.514;2024-02-23T12:27:45;97883.06;;;6.49;53.70
80693;BME280;70055;39.436;-77.514;2024-02-23T12:30:14;97879.67;;;5.25;54.49
80693;BME280;70055;39.436;-77.514;2024-02-23T12:32:43;97884.17;;;4.76;56.59
80693;BME280;70055;39.436;-77.514;2024-02-23T12:35:12;97882.46;;;5.38;56.40
80693;BME280;70055;39.436;-77.514;2024-02-23T12:37:40;97875.51;;;5.84;55.32
80693;BME280;70055;39.436;-77.514;2024-02-23T12:40:09;97877.83;;;6.55;54.18
80693;BME280;70055;39.436;-77.514;2024-02-23T12:42:37;97877.73;;;6.29;54.69
80693;BME280;70055;39.436;-77.514;2024-02-23T12:45:06;97879.77;;;7.12;52.73
80693;BME280;70055;39.436;-77.514;2024-02-23T12:47:36;97893.11;;;5.47;56.91
80693;BME280;70055;39.436;-77.514;2024-02-23T12:50:07;97891.98;;;6.54;55.38
80693;BME280;70055;39.436;-77.514;2024-02-23T12:52:37;97893.82;;;6.57;55.53
80693;BME280;70055;39.436;-77.514;2024-02-23T12:55:08;97896.55;;;6.66;55.40
80693;BME280;70055;39.436;-77.514;2024-02-23T12:57:37;97900.11;;;5.84;56.62